createdAt,value
2022-08-10T00:04:21.193Z,19.37
2022-08-10T00:09:13.326Z,19.31
2022-08-10T00:14:04.960Z,19.24
2022-08-10T00:18:56.620Z,19.19
2022-08-10T00:23:48.267Z,19.10
2022-08-10T00:28:39.948Z,19.02
2022-08-10T00:33:31.576Z,18.98
2022-08-10T00:38:23.343Z,18.95
2022-08-10T00:43:15.071Z,18.94
2022-08-10T00:48:16.133Z,18.93
2022-08-10T00:53:08.138Z,18.91
2022-08-10T00:58:00.468Z,18.92
2022-08-10T01:02:53.183Z,18.94
2022-08-10T01:07:51.172Z,18.99
2022-08-10T01:13:07.127Z,19.00
2022-08-10T01:18:05.555Z,18.97
2022-08-10T01:23:34.712Z,18.98
2022-08-10T01:29:01.282Z,18.94
2022-08-10T01:34:02.337Z,18.89
2022-08-10T01:38:56.897Z,18.86
2022-08-10T01:44:00.033Z,18.82
2022-08-10T01:48:59.026Z,18.76
2022-08-10T01:54:12.947Z,18.72
2022-08-10T01:59:10.859Z,18.65
2022-08-10T02:04:08.242Z,18.57
2022-08-10T02:09:06.478Z,18.51
2022-08-10T02:14:00.889Z,18.46
2022-08-10T02:18:55.134Z,18.40
2022-08-10T02:23:59.716Z,18.31
2022-08-10T02:28:54.685Z,18.24
2022-08-10T02:33:56.446Z,18.16
2022-08-10T02:39:00.971Z,18.08
2022-08-10T02:45:19.467Z,17.99
2022-08-10T02:49:32.377Z,17.89
2022-08-10T02:54:28.955Z,17.77
2022-08-10T02:59:39.877Z,17.69
2022-08-10T03:04:57.269Z,17.61
2022-08-10T03:09:52.122Z,17.53
2022-08-10T03:14:45.617Z,17.47
2022-08-10T03:20:34.707Z,17.44
2022-08-10T03:24:51.566Z,17.39
2022-08-10T03:30:29.995Z,17.34
2022-08-10T03:34:58.514Z,17.32
2022-08-10T03:39:51.467Z,17.30
2022-08-10T03:44:47.398Z,17.30
2022-08-10T03:49:44.071Z,17.28
2022-08-10T03:54:36.102Z,17.26
2022-08-10T03:59:28.323Z,17.27
2022-08-10T04:04:24.695Z,17.29
2022-08-10T04:09:17.337Z,17.27
2022-08-10T04:14:09.225Z,17.25
2022-08-10T04:19:21.811Z,17.23
2022-08-10T04:24:29.048Z,17.23
2022-08-10T04:29:21.747Z,17.21
2022-08-10T04:34:15.801Z,17.18
2022-08-10T04:39:08.023Z,17.17
2022-08-10T04:43:59.726Z,17.15
2022-08-10T04:49:01.265Z,17.10
2022-08-10T04:54:04.080Z,17.11
2022-08-10T04:58:57.896Z,17.09
2022-08-10T05:04:37.152Z,17.12
2022-08-10T05:09:01.198Z,17.11
2022-08-10T05:13:52.814Z,17.11
2022-08-10T05:18:44.422Z,17.12
2022-08-10T05:23:36.062Z,17.12
2022-08-10T05:28:27.858Z,17.15
2022-08-10T05:33:24.235Z,17.36
2022-08-10T05:38:17.810Z,17.76
2022-08-10T05:43:09.587Z,18.26
2022-08-10T05:48:58.146Z,18.85
2022-08-10T05:53:59.643Z,19.50
2022-08-10T05:58:27.968Z,20.06
2022-08-10T06:03:24.349Z,20.53
2022-08-10T06:08:19.246Z,21.08
2022-08-10T06:13:34.803Z,21.61
2022-08-10T06:18:43.446Z,22.17
2022-08-10T06:23:37.087Z,22.67
2022-08-10T06:28:31.260Z,23.24
2022-08-10T06:33:24.518Z,23.65
2022-08-10T06:38:17.225Z,23.92
2022-08-10T06:43:13.489Z,24.37
2022-08-10T06:48:28.753Z,24.97
2022-08-10T06:53:22.853Z,25.45
2022-08-10T06:58:15.818Z,25.84
2022-08-10T07:03:11.521Z,26.18
2022-08-10T07:08:03.978Z,26.75
2022-08-10T07:12:57.947Z,27.09
2022-08-10T07:17:52.814Z,27.41
2022-08-10T07:23:01.306Z,27.91
2022-08-10T07:28:03.385Z,28.49
2022-08-10T07:32:56.136Z,29.16
2022-08-10T07:37:51.445Z,29.63
2022-08-10T07:42:46.179Z,29.84
2022-08-10T07:47:53.533Z,30.03
2022-08-10T07:52:48.910Z,30.42
2022-08-10T07:57:44.544Z,30.88
2022-08-10T08:02:46.236Z,31.28
2022-08-10T08:07:39.019Z,31.45
2022-08-10T08:12:36.910Z,31.89
2022-08-10T08:17:36.432Z,32.29
2022-08-10T08:24:09.318Z,32.84
2022-08-10T08:27:42.854Z,33.25
2022-08-10T08:32:42.349Z,33.57
2022-08-10T08:38:32.337Z,33.70
2022-08-10T08:43:27.368Z,33.96
2022-08-10T08:48:31.276Z,34.03
2022-08-10T08:54:01.756Z,34.28
2022-08-10T08:59:11.405Z,34.27
2022-08-10T09:04:24.189Z,34.42
2022-08-10T09:09:35.374Z,34.72
2022-08-10T09:14:57.107Z,34.94
2022-08-10T09:19:56.029Z,35.12
2022-08-10T09:25:14.143Z,35.65
2022-08-10T09:30:08.674Z,35.95
2022-08-10T09:36:22.293Z,36.10
2022-08-10T09:41:00.940Z,36.02
2022-08-10T09:46:20.521Z,36.25
2022-08-10T09:56:41.643Z,36.61
2022-08-10T10:02:02.959Z,36.91
2022-08-10T10:06:58.538Z,36.98
2022-08-10T10:11:50.104Z,37.00
2022-08-10T10:17:03.987Z,37.09
2022-08-10T10:22:10.678Z,37.24
2022-08-10T10:27:24.661Z,37.35
2022-08-10T10:32:24.476Z,37.68
2022-08-10T10:37:20.044Z,37.89
2022-08-10T10:42:46.887Z,37.95
2022-08-10T10:47:50.636Z,38.00
2022-08-10T10:53:18.026Z,38.11
2022-08-10T10:58:21.731Z,38.37
2022-08-10T11:03:23.673Z,38.42
2022-08-10T11:08:29.325Z,38.43
2022-08-10T11:14:25.481Z,38.39
2022-08-10T11:18:58.038Z,38.45
2022-08-10T11:24:47.037Z,38.40
2022-08-10T11:29:32.317Z,38.32
2022-08-10T11:35:10.433Z,38.41
2022-08-10T11:40:13.205Z,38.42
2022-08-10T11:45:29.649Z,38.07
2022-08-10T11:50:26.677Z,37.72
2022-08-10T11:55:24.714Z,37.75
2022-08-10T12:00:17.464Z,37.81
2022-08-10T12:05:18.152Z,37.82
2022-08-10T12:10:13.704Z,37.71
2022-08-10T12:15:27.947Z,37.88
2022-08-10T12:20:39.435Z,37.70
2022-08-10T12:25:59.307Z,37.49
2022-08-10T12:30:56.553Z,37.26
2022-08-10T12:36:17.410Z,37.05
2022-08-10T12:41:43.743Z,36.68
2022-08-10T12:46:38.743Z,36.42
2022-08-10T12:51:33.699Z,36.17
2022-08-10T12:56:28.024Z,35.97
2022-08-10T13:01:23.372Z,35.61
2022-08-10T13:06:16.861Z,35.28
2022-08-10T13:12:34.332Z,34.99
2022-08-10T13:16:24.578Z,34.73
2022-08-10T13:21:29.864Z,34.38
2022-08-10T13:26:26.330Z,34.15
2022-08-10T13:32:03.378Z,33.75
2022-08-10T13:36:41.761Z,33.22
2022-08-10T13:41:45.138Z,32.89
2022-08-10T13:46:40.478Z,32.62
2022-08-10T13:51:53.973Z,32.52
2022-08-10T13:56:51.155Z,32.36
2022-08-10T14:01:48.973Z,32.26
2022-08-10T14:06:48.661Z,32.07
2022-08-10T14:11:42.046Z,31.82
2022-08-10T14:16:35.076Z,31.58
2022-08-10T14:21:27.826Z,31.42
2022-08-10T14:26:25.150Z,31.50
2022-08-10T14:31:22.194Z,31.53
2022-08-10T14:36:24.236Z,31.47
2022-08-10T14:42:02.581Z,31.34
2022-08-10T14:46:36.821Z,31.26
2022-08-10T14:51:43.907Z,31.26
2022-08-10T14:56:37.318Z,31.22
2022-08-10T15:02:01.468Z,31.34
2022-08-10T15:06:54.118Z,31.39
2022-08-10T15:12:13.354Z,31.24
2022-08-10T15:17:11.349Z,31.00
2022-08-10T15:22:18.127Z,31.00
2022-08-10T15:27:19.468Z,30.91
2022-08-10T15:32:30.402Z,30.84
2022-08-10T15:37:47.165Z,30.71
2022-08-10T15:42:39.155Z,30.65
2022-08-10T15:47:45.623Z,30.57
2022-08-10T15:53:00.483Z,30.55
2022-08-10T15:58:12.950Z,30.52
2022-08-10T16:03:15.843Z,30.42
2022-08-10T16:08:11.171Z,30.30
2022-08-10T16:13:50.504Z,30.22
2022-08-10T16:18:27.705Z,30.18
2022-08-10T16:23:23.992Z,30.11
2022-08-10T16:28:19.980Z,30.08
2022-08-10T16:33:18.562Z,30.03
2022-08-10T16:38:13.391Z,30.06
2022-08-10T16:43:09.325Z,30.00
2022-08-10T16:48:01.894Z,29.92
2022-08-10T16:52:54.263Z,29.90
2022-08-10T16:57:48.507Z,29.91
2022-08-10T17:02:45.978Z,29.90
2022-08-10T17:07:40.875Z,29.90
2022-08-10T17:12:34.979Z,29.89
2022-08-10T17:17:31.362Z,29.80
2022-08-10T17:22:28.170Z,29.77
2022-08-10T17:28:05.633Z,29.76
2022-08-10T17:33:24.845Z,29.72
2022-08-10T17:38:21.341Z,29.63
2022-08-10T17:44:00.805Z,29.50
2022-08-10T17:48:34.921Z,29.42
2022-08-10T17:53:42.046Z,29.36
2022-08-10T17:58:35.780Z,29.36
2022-08-10T18:03:32.277Z,29.37
2022-08-10T18:08:25.314Z,29.37
2022-08-10T18:13:21.622Z,29.29
2022-08-10T18:18:20.884Z,29.25
2022-08-10T18:23:13.554Z,29.20
2022-08-10T18:28:10.664Z,29.16
2022-08-10T18:33:04.607Z,29.09
2022-08-10T18:38:01.462Z,29.02
2022-08-10T18:42:56.466Z,28.98
2022-08-10T18:47:58.949Z,28.92
2022-08-10T18:52:58.038Z,28.84
2022-08-10T18:58:20.181Z,28.71
2022-08-10T19:03:25.692Z,28.48
2022-08-10T19:08:49.539Z,28.30
2022-08-10T19:13:51.103Z,28.11
2022-08-10T19:19:00.506Z,27.95
2022-08-10T19:23:58.091Z,27.74
2022-08-10T19:30:04.957Z,27.47
2022-08-10T19:34:53.352Z,27.16
2022-08-10T19:40:12.169Z,26.94
2022-08-10T19:46:01.997Z,26.79
2022-08-10T19:51:01.983Z,26.55
2022-08-10T19:56:30.559Z,26.35
2022-08-10T20:01:20.271Z,26.20
2022-08-10T20:06:24.121Z,26.07
2022-08-10T20:11:46.045Z,25.87
2022-08-10T20:16:42.838Z,25.66
2022-08-10T20:21:47.284Z,25.53
2022-08-10T20:26:55.590Z,25.43
2022-08-10T20:31:53.290Z,25.36
2022-08-10T20:36:56.897Z,25.15
2022-08-10T20:42:10.553Z,25.03
2022-08-10T20:47:18.493Z,24.96
2022-08-10T20:52:10.977Z,24.84
2022-08-10T20:57:05.460Z,24.69
2022-08-10T21:02:34.899Z,24.55
2022-08-10T21:08:01.139Z,24.34
2022-08-10T21:13:16.313Z,24.14
2022-08-10T21:18:08.113Z,24.00
2022-08-10T21:23:05.921Z,23.85
2022-08-10T21:28:29.432Z,23.68
2022-08-10T21:33:45.432Z,23.45
2022-08-10T21:38:57.956Z,23.36
2022-08-10T21:45:01.079Z,23.19
2022-08-10T21:50:27.461Z,23.05
2022-08-10T21:55:58.252Z,22.95
2022-08-10T22:01:15.207Z,22.84
2022-08-10T22:06:27.854Z,22.81
2022-08-10T22:11:42.997Z,22.75
2022-08-10T22:17:59.470Z,22.67
2022-08-10T22:22:56.095Z,22.50
2022-08-10T22:28:12.389Z,22.42
2022-08-10T22:33:27.722Z,22.31
2022-08-10T22:39:08.730Z,22.15
2022-08-10T22:44:21.206Z,21.90
2022-08-10T22:49:13.506Z,21.72
2022-08-10T22:54:35.954Z,21.59
2022-08-10T22:59:32.630Z,21.48
2022-08-10T23:04:55.761Z,21.40
2022-08-10T23:10:10.309Z,21.32
2022-08-10T23:15:22.247Z,21.25
2022-08-10T23:20:18.169Z,21.20
2022-08-10T23:25:13.826Z,21.17
2022-08-10T23:30:17.708Z,21.09
2022-08-10T23:36:08.761Z,21.03
2022-08-10T23:40:32.866Z,21.00
2022-08-10T23:45:27.893Z,20.92
2022-08-10T23:50:20.554Z,20.87
2022-08-10T23:55:19.684Z,20.88
